Eems Servant — PBTI — position and weather

sailwx.info

Track history (hours):
 
Tides and Currents Weather Stations Pressure Air Temp Water Temp Dewpoint Dewpoint Depression Visibility Wind Speed Wind Dir Waves Ship Positions

Eems Servant

Last reported at 2014-Jul-29 22:34 UTC. Time now 2014-Jul-29 23:01 UTC.
Position N 58°08' E 008°36'.

Length 87 m; draft 4.4 m.

Type: Cargo ship. MMSI: 246236000.

Date/timePositionNaut miles runAvg speedWind from/ knotsBaromVisibWave heightAir tempDewpointWater temp
2014-Jul-29 22:34N 58°08' E 008°36'9 8.5
2014-Jul-29 21:33N 58°03' E 008°22'8 8.4
2014-Jul-29 20:33N 57°59' E 008°08'53 8.4
2014-Jul-29 14:17N 58°00' E 006°29'7 9.9
2014-Jul-29 13:33N 58°05' E 006°19'1010.2
2014-Jul-29 12:34N 58°12' E 006°04'1010.4
2014-Jul-29 11:34N 58°19' E 005°50'10 9.5
2014-Jul-29 10:33N 58°25' E 005°36'19 8.7
2014-Jul-29 08:24N 58°41' E 005°16'8 9.0
2014-Jul-29 07:33N 58°47' E 005°09'9 8.6
2014-Jul-29 06:33N 58°55' E 005°01'9 8.5
2014-Jul-29 05:32N 59°03' E 004°53'343 8.3
2014-Jul-27 12:07N 64°29' E 008°33'141 8.5
2014-Jul-26 19:33N 66°17' E 012°13'9 8.6
2014-Jul-26 18:33N 66°15' E 012°34'8 8.0
2014-Jul-26 17:33N 66°20' E 012°49'10 8.8
2014-Jul-26 16:28N 66°28' E 012°59'17 8.7
2014-Jul-26 14:30N 66°45' E 013°12'11 0.2
2014-Jul-24 15:18N 66°34' E 013°04'7 8.7
2014-Jul-24 14:29N 66°27' E 012°59'9 9.3
2014-Jul-24 13:33N 66°19' E 012°48'1010.0
2014-Jul-24 12:33N 66°15' E 012°26'  
Track history (hours):
 
Tides and Currents Weather Stations Pressure Air Temp Water Temp Dewpoint Dewpoint Depression Visibility Wind Speed Wind Dir Waves Ship Positions

Eems Servant

Last reported at 2014-Jul-29 22:34 UTC. Time now 2014-Jul-29 23:01 UTC.
Position N 58°08' E 008°36'.

Length 87 m; draft 4.4 m.

Type: Cargo ship. MMSI: 246236000.

Date/timePositionNaut miles runAvg speedWind from/ knotsBaromVisibWave heightAir tempDewpointWater temp
2014-Jul-29 22:34N 58°08' E 008°36'9 8.5
2014-Jul-29 21:33N 58°03' E 008°22'8 8.4
2014-Jul-29 20:33N 57°59' E 008°08'53 8.4
2014-Jul-29 14:17N 58°00' E 006°29'7 9.9
2014-Jul-29 13:33N 58°05' E 006°19'1010.2
2014-Jul-29 12:34N 58°12' E 006°04'1010.4
2014-Jul-29 11:34N 58°19' E 005°50'10 9.5
2014-Jul-29 10:33N 58°25' E 005°36'19 8.7
2014-Jul-29 08:24N 58°41' E 005°16'8 9.0
2014-Jul-29 07:33N 58°47' E 005°09'9 8.6
2014-Jul-29 06:33N 58°55' E 005°01'9 8.5
2014-Jul-29 05:32N 59°03' E 004°53'343 8.3
2014-Jul-27 12:07N 64°29' E 008°33'141 8.5
2014-Jul-26 19:33N 66°17' E 012°13'9 8.6
2014-Jul-26 18:33N 66°15' E 012°34'8 8.0
2014-Jul-26 17:33N 66°20' E 012°49'10 8.8
2014-Jul-26 16:28N 66°28' E 012°59'17 8.7
2014-Jul-26 14:30N 66°45' E 013°12'11 0.2
2014-Jul-24 15:18N 66°34' E 013°04'7 8.7
2014-Jul-24 14:29N 66°27' E 012°59'9 9.3
2014-Jul-24 13:33N 66°19' E 012°48'1010.0
2014-Jul-24 12:33N 66°15' E 012°26'  

Dump ship's entire track history